Time;durP1;ratioP1;P1;durP2;ratioP2;P2;SDS_P1;SDS_P2;PMS_P1;PMS_P2;Temp;Humidity;BMP_temperature;BMP_pressure;BME280_temperature;BME280_humidity;BME280_pressure;Samples;Min_cycle;Max_cycle;Signal;HPM_P1;HPM_P2
2023/08/16 00:02:24;;;;;;;6.10;3.00;;;;;;;24.13;51.33;99911.44;10389712;28;20246;-67
2023/08/16 00:07:26;;;;;;;2.97;2.67;;;;;;;22.37;54.75;99928.06;10386137;28;20270;-67
2023/08/16 00:12:28;;;;;;;5.78;2.92;;;;;;;23.51;51.92;99919.47;10391759;28;20726;-67
2023/08/16 00:17:30;;;;;;;3.63;2.95;;;;;;;23.44;52.28;99918.91;10395758;28;20232;-67
2023/08/16 00:22:32;;;;;;;3.80;2.83;;;;;;;21.52;56.38;99925.00;10394967;28;20678;-67
2023/08/16 00:27:33;;;;;;;3.95;3.00;;;;;;;22.95;53.30;99889.19;10392877;28;20240;-67
2023/08/16 00:32:35;;;;;;;5.78;3.40;;;;;;;20.42;57.75;99931.03;10395958;28;20233;-67
2023/08/16 00:37:37;;;;;;;5.38;3.90;;;;;;;19.39;61.70;99867.50;10391571;28;20237;-66
2023/08/16 00:42:39;;;;;;;6.88;3.80;;;;;;;20.40;60.02;99827.22;10390778;28;20294;-67
2023/08/16 00:47:41;;;;;;;7.80;4.50;;;;;;;19.90;60.32;99883.13;10389340;28;20300;-67
2023/08/16 00:52:43;;;;;;;4.35;3.63;;;;;;;21.76;56.71;99839.22;10394894;28;20324;-67
2023/08/16 00:57:45;;;;;;;4.72;3.50;;;;;;;21.84;56.76;99876.06;10392532;28;20240;-67
2023/08/16 01:02:47;;;;;;;4.60;3.70;;;;;;;22.62;54.41;99883.00;10391552;28;20252;-67
2023/08/16 01:07:49;;;;;;;5.32;4.10;;;;;;;20.98;57.42;99937.34;10391833;28;20395;-67
2023/08/16 01:13:01;;;;;;;6.13;3.72;;;;;;;23.54;52.43;99897.09;10390405;28;20327;-67
2023/08/16 01:18:04;;;;;;;4.63;3.50;;;;;;;21.75;54.52;99951.16;10386806;28;20419;-67
2023/08/16 01:23:09;;;;;;;4.43;3.72;;;;;;;21.96;55.16;99901.28;10389902;28;20237;-67
2023/08/16 01:28:11;;;;;;;5.32;3.95;;;;;;;21.13;57.72;99878.78;10389865;28;20232;-67
2023/08/16 01:33:13;;;;;;;4.60;4.20;;;;;;;21.11;58.01;99865.44;10389769;28;20241;-67
2023/08/16 01:38:15;;;;;;;5.00;3.78;;;;;;;20.78;58.13;99877.22;10390672;28;20232;-66
2023/08/16 01:43:19;;;;;;;4.97;3.97;;;;;;;21.08;57.94;99876.81;10392185;28;20238;-67
2023/08/16 01:48:23;;;;;;;4.57;4.15;;;;;;;19.79;60.53;99903.00;10389293;28;20228;-66
2023/08/16 01:53:24;;;;;;;4.85;4.38;;;;;;;19.85;60.82;99861.31;10389975;28;20232;-66
2023/08/16 01:58:26;;;;;;;5.10;4.50;;;;;;;19.24;61.95;99898.94;10389934;28;20261;-67
2023/08/16 02:03:28;;;;;;;8.55;4.75;;;;;;;19.77;60.50;99884.25;10389470;28;20336;-67
2023/08/16 02:08:30;;;;;;;6.18;4.55;;;;;;;19.80;61.15;99875.63;10387737;28;20229;-67
2023/08/16 02:13:32;;;;;;;4.40;4.00;;;;;;;19.26;62.10;99899.50;10388606;28;20240;-67
2023/08/16 02:18:34;;;;;;;6.28;4.10;;;;;;;19.01;62.83;99909.59;10389985;28;20327;-66
2023/08/16 02:23:36;;;;;;;4.90;4.40;;;;;;;19.00;63.06;99901.69;10389899;28;20726;-67
2023/08/16 02:28:37;;;;;;;4.60;4.20;;;;;;;19.58;61.31;99918.91;10388025;28;20225;-66
2023/08/16 02:33:39;;;;;;;4.75;3.92;;;;;;;20.45;59.60;99958.53;10387549;28;20241;-67
2023/08/16 02:38:41;;;;;;;4.70;3.92;;;;;;;21.83;56.96;99958.88;10388842;28;20278;-66
2023/08/16 02:43:43;;;;;;;4.50;4.10;;;;;;;20.95;57.46;100052.09;10389584;28;20317;-67
2023/08/16 02:48:44;;;;;;;4.93;3.70;;;;;;;21.22;57.84;100029.63;10387722;28;20259;-67
2023/08/16 02:53:46;;;;;;;4.85;4.35;;;;;;;20.84;59.18;100042.13;10387501;28;20311;-67
2023/08/16 02:58:48;;;;;;;6.32;4.45;;;;;;;21.41;58.99;100003.00;10387787;28;20367;-66
2023/08/16 03:03:49;;;;;;;5.70;4.68;;;;;;;22.21;55.49;100079.72;10388229;28;20252;-66
2023/08/16 03:08:51;;;;;;;6.65;4.22;;;;;;;24.83;51.16;100028.53;10386220;28;20229;-67
2023/08/16 03:13:53;;;;;;;5.25;4.43;;;;;;;24.65;51.50;100006.09;10384616;28;20852;-67
2023/08/16 03:18:55;;;;;;;4.45;4.05;;;;;;;23.02;55.36;99967.00;10387062;28;20803;-67
2023/08/16 03:23:56;;;;;;;6.22;4.45;;;;;;;22.97;54.83;99955.22;10386335;28;20229;-67
2023/08/16 03:28:59;;;;;;;5.55;4.00;;;;;;;22.97;55.36;99922.50;10384846;28;20809;-67
2023/08/16 03:34:00;;;;;;;6.05;4.93;;;;;;;21.80;58.82;99888.56;10384655;28;20228;-67
2023/08/16 03:39:05;;;;;;;5.95;4.63;;;;;;;22.85;55.25;99903.59;10385530;28;20778;-70
2023/08/16 03:44:07;;;;;;;5.43;4.70;;;;;;;22.42;55.78;99909.03;10382119;28;20232;-67
2023/08/16 03:49:08;;;;;;;10.48;5.35;;;;;;;21.96;56.47;99900.44;10397066;28;20225;-67
2023/08/16 03:54:10;;;;;;;8.45;5.50;;;;;;;22.92;55.15;99874.16;10395762;28;20345;-71
2023/08/16 03:59:12;;;;;;;6.22;5.30;;;;;;;23.04;54.73;99868.50;10396392;28;20326;-67
2023/08/16 04:04:14;;;;;;;7.15;6.10;;;;;;;22.28;56.97;99888.72;10393082;28;20240;-67
2023/08/16 04:09:16;;;;;;;12.80;6.50;;;;;;;21.85;56.98;99929.47;10392596;28;20312;-67
2023/08/16 04:14:18;;;;;;;8.57;6.80;;;;;;;22.99;55.36;99858.38;10394766;28;20234;-67
2023/08/16 04:19:19;;;;;;;7.30;6.40;;;;;;;24.40;52.07;99840.09;10396926;28;20246;-67
2023/08/16 04:24:21;;;;;;;8.10;6.45;;;;;;;21.41;57.63;99924.88;10393986;28;20351;-67
2023/08/16 04:29:24;;;;;;;8.90;7.10;;;;;;;21.38;58.91;99891.91;10395965;28;20746;-67
2023/08/16 04:34:26;;;;;;;9.23;6.03;;;;;;;24.61;51.85;99884.63;10399268;28;20239;-67
2023/08/16 04:39:28;;;;;;;7.00;6.28;;;;;;;22.38;56.80;99888.00;10396465;28;20228;-67
2023/08/16 04:44:29;;;;;;;9.68;8.35;;;;;;;21.15;60.22;99865.75;10393148;28;20262;-67
2023/08/16 04:49:32;;;;;;;9.40;7.15;;;;;;;20.45;60.58;99927.84;10394634;28;20325;-67
2023/08/16 04:54:34;;;;;;;9.10;7.40;;;;;;;20.08;62.81;99882.09;10394837;28;20789;-67
2023/08/16 04:59:36;;;;;;;7.35;6.18;;;;;;;20.42;61.20;99901.97;10395331;28;20233;-67
2023/08/16 05:04:37;;;;;;;8.13;6.20;;;;;;;19.83;63.00;99887.91;10392686;28;20611;-67
2023/08/16 05:09:39;;;;;;;10.55;6.68;;;;;;;20.40;61.55;99870.69;10389009;28;20236;-67
2023/08/16 05:14:41;;;;;;;9.27;6.30;;;;;;;21.89;57.64;99913.41;10392099;28;20225;-66
2023/08/16 05:19:42;;;;;;;7.47;6.07;;;;;;;20.55;61.02;99930.72;10393049;28;20294;-66
2023/08/16 05:24:44;;;;;;;6.85;5.70;;;;;;;20.18;61.29;99917.59;10392247;28;20243;-67
2023/08/16 05:29:46;;;;;;;6.70;5.80;;;;;;;20.40;60.21;99957.66;10392382;28;20287;-66
2023/08/16 05:34:52;;;;;;;5.53;5.03;;;;;;;21.36;57.93;99949.31;10388750;28;20282;-67
2023/08/16 05:39:53;;;;;;;5.90;5.32;;;;;;;21.57;58.40;99920.44;10393156;28;20309;-66
2023/08/16 05:44:55;;;;;;;7.00;5.90;;;;;;;20.77;59.60;99984.38;10387646;28;20723;-67
2023/08/16 05:49:58;;;;;;;6.13;5.53;;;;;;;20.10;60.31;100013.84;10386962;28;20215;-67
2023/08/16 05:55:00;;;;;;;7.90;5.40;;;;;;;20.79;59.90;99990.38;10386956;28;20600;-67
2023/08/16 06:00:02;;;;;;;6.63;6.03;;;;;;;20.56;60.15;99991.31;10388211;28;20236;-67
2023/08/16 06:05:05;;;;;;;7.43;6.68;;;;;;;20.38;60.64;100003.25;10391400;28;20563;-67
2023/08/16 06:10:07;;;;;;;6.95;6.25;;;;;;;22.64;56.18;99949.00;10390553;28;20286;-67
2023/08/16 06:15:11;;;;;;;9.27;7.25;;;;;;;21.93;58.00;99958.97;10388819;28;20663;-67
2023/08/16 06:20:13;;;;;;;7.30;6.60;;;;;;;22.09;57.62;100000.84;10389520;28;20237;-67
2023/08/16 06:25:15;;;;;;;10.98;7.60;;;;;;;20.44;60.98;100032.16;10390967;28;20323;-67
2023/08/16 06:30:17;;;;;;;10.23;7.88;;;;;;;21.96;58.23;100007.53;10388321;28;20239;-67
2023/08/16 06:35:19;;;;;;;10.57;8.65;;;;;;;21.41;58.91;100019.34;10389081;28;20229;-67
2023/08/16 06:40:20;;;;;;;10.82;9.73;;;;;;;21.29;60.66;99981.31;10389292;28;20237;-67
2023/08/16 06:45:23;;;;;;;11.50;10.32;;;;;;;20.76;62.53;99977.25;10388371;28;20297;-67
2023/08/16 06:50:26;;;;;;;15.02;10.82;;;;;;;22.13;59.37;99984.78;10389031;28;20236;-67
2023/08/16 06:55:28;;;;;;;13.75;10.48;;;;;;;21.39;60.90;100013.31;10384243;28;20243;-67
2023/08/16 07:00:30;;;;;;;14.43;11.30;;;;;;;21.14;61.19;99991.97;10387856;28;20243;-67
2023/08/16 07:05:32;;;;;;;13.75;11.93;;;;;;;21.01;60.78;100013.00;10387779;28;20315;-67
2023/08/16 07:10:34;;;;;;;14.07;11.02;;;;;;;21.51;60.22;99981.38;10385039;28;20650;-67
2023/08/16 07:15:35;;;;;;;12.05;9.90;;;;;;;22.50;58.60;99965.84;10387966;28;20237;-67
2023/08/16 07:20:38;;;;;;;8.52;7.63;;;;;;;22.33;58.06;99978.72;10393172;28;20233;-67
2023/08/16 07:25:39;;;;;;;8.02;7.00;;;;;;;22.42;58.17;99995.41;10389617;28;20256;-67
2023/08/16 07:30:41;;;;;;;8.52;6.30;;;;;;;22.16;59.57;99989.72;10393519;28;20228;-67
2023/08/16 07:35:43;;;;;;;8.68;5.97;;;;;;;23.44;56.42;99990.72;10397443;28;20244;-67
2023/08/16 07:40:48;;;;;;;10.40;6.60;;;;;;;22.37;58.96;99987.19;10392191;28;20237;-67
2023/08/16 07:45:53;;;;;;;6.95;5.93;;;;;;;22.86;57.71;100000.75;10394508;28;20236;-67
2023/08/16 07:50:55;;;;;;;6.03;5.15;;;;;;;23.47;56.38;99991.28;10396791;28;20228;-67
2023/08/16 07:55:57;;;;;;;6.43;5.60;;;;;;;24.14;55.49;99978.66;10392052;28;20350;-67
2023/08/16 08:00:59;;;;;;;6.05;5.15;;;;;;;24.56;55.13;99988.56;10393964;28;20702;-67
2023/08/16 08:06:04;;;;;;;7.70;5.55;;;;;;;22.51;57.77;100038.34;10389438;28;20947;-67
2023/08/16 08:11:09;;;;;;;7.03;4.78;;;;;;;23.76;54.99;100011.63;10393878;28;20608;-67
2023/08/16 08:16:10;;;;;;;4.93;4.32;;;;;;;25.65;52.73;99971.66;10391720;28;20235;-67
2023/08/16 08:21:12;;;;;;;7.35;4.85;;;;;;;24.40;54.87;100020.56;10393626;28;20587;-67
2023/08/16 08:26:15;;;;;;;5.72;5.07;;;;;;;25.53;53.88;99971.16;10392938;28;20623;-67
2023/08/16 08:31:18;;;;;;;6.63;5.22;;;;;;;23.70;56.05;100028.28;10390717;28;20232;-67
2023/08/16 08:36:20;;;;;;;5.53;4.65;;;;;;;25.73;53.24;99981.25;10393968;28;20773;-68
2023/08/16 08:41:23;;;;;;;6.53;5.13;;;;;;;24.48;54.92;100022.75;10394547;28;20648;-67
2023/08/16 08:46:35;;;;;;;9.80;4.93;;;;;;;24.39;54.30;100015.38;10394683;28;20274;-67
2023/08/16 08:51:38;;;;;;;6.45;4.20;;;;;;;25.57;53.43;99960.47;10400109;28;20273;-67
2023/08/16 08:56:40;;;;;;;7.03;3.97;;;;;;;25.43;53.32;99966.53;10394793;28;20243;-67
2023/08/16 09:01:45;;;;;;;8.35;4.07;;;;;;;25.64;52.42;99982.88;10391887;28;20240;-67
2023/08/16 09:06:47;;;;;;;4.05;3.65;;;;;;;25.25;53.36;99978.13;10386709;28;20243;-67
2023/08/16 09:11:49;;;;;;;5.95;3.47;;;;;;;26.25;51.34;99964.47;10386536;28;20225;-67
2023/08/16 09:16:51;;;;;;;5.35;3.60;;;;;;;26.32;51.12;99976.78;10396184;28;20258;-67
2023/08/16 09:21:53;;;;;;;3.80;3.28;;;;;;;25.72;51.50;99996.03;10391312;28;20278;-67
2023/08/16 09:26:59;;;;;;;4.63;3.03;;;;;;;26.62;50.19;99979.53;10390593;28;20259;-68
2023/08/16 09:32:05;;;;;;;3.80;2.70;;;;;;;27.50;49.52;99961.88;10393488;28;20229;-67
2023/08/16 09:37:07;;;;;;;5.05;3.20;;;;;;;26.08;51.07;99986.78;10388023;28;20241;-67
2023/08/16 09:42:10;;;;;;;6.13;3.70;;;;;;;26.49;50.99;99970.88;10389798;28;20225;-67
2023/08/16 09:47:13;;;;;;;5.63;3.42;;;;;;;26.86;49.62;99971.41;10387757;28;20240;-67
2023/08/16 09:52:19;;;;;;;3.75;3.10;;;;;;;27.72;47.89;99956.94;10390556;28;20314;-67
2023/08/16 09:57:21;;;;;;;3.95;3.45;;;;;;;26.53;50.60;99949.16;10388715;28;20649;-67
2023/08/16 10:02:26;;;;;;;4.47;3.00;;;;;;;26.49;49.76;99940.69;10389451;28;20290;-67
2023/08/16 10:07:31;;;;;;;3.53;2.92;;;;;;;27.20;49.30;99946.56;10394327;28;20232;-67
2023/08/16 10:12:34;;;;;;;3.50;2.95;;;;;;;27.02;49.67;99928.13;10390946;28;20240;-67
2023/08/16 10:17:42;;;;;;;3.50;2.50;;;;;;;26.57;49.60;99922.81;10390267;28;20240;-67
2023/08/16 10:22:48;;;;;;;4.57;3.33;;;;;;;25.89;51.80;99910.69;10390196;28;20271;-67
2023/08/16 10:27:54;;;;;;;3.90;3.10;;;;;;;27.91;48.05;99911.03;10386110;28;20232;-67
2023/08/16 10:33:18;;;;;;;4.22;3.10;;;;;;;26.94;48.60;99927.66;10388858;28;20363;-66
2023/08/16 10:38:20;;;;;;;5.22;3.15;;;;;;;27.61;48.43;99918.59;10387493;28;20232;-67
2023/08/16 10:43:31;;;;;;;3.28;2.97;;;;;;;28.58;47.80;99869.47;10389450;28;20232;-67
2023/08/16 10:48:36;;;;;;;4.18;3.30;;;;;;;28.44;47.40;99884.34;10387746;28;20228;-68
2023/08/16 10:53:39;;;;;;;4.45;3.38;;;;;;;28.20;47.95;99874.28;10388848;28;20236;-67
2023/08/16 10:58:51;;;;;;;3.47;3.15;;;;;;;29.37;46.24;99864.88;10386570;28;20221;-67
2023/08/16 11:06:19;;;;;;;3.53;3.10;;;;;;;24.43;54.78;99831.34;10411603;28;20821;-67
2023/08/16 11:11:21;;;;;;;4.70;3.33;;;;;;;26.07;53.14;99817.91;10382219;28;20747;-67
2023/08/16 11:16:23;;;;;;;4.18;3.63;;;;;;;25.73;53.34;99824.25;10390158;28;20312;-67
2023/08/16 11:21:26;;;;;;;3.65;3.35;;;;;;;26.56;52.10;99827.88;10392544;28;20235;-67
2023/08/16 11:26:36;;;;;;;4.32;3.60;;;;;;;27.43;50.83;99820.47;10391854;28;20244;-67
2023/08/16 11:31:38;;;;;;;3.47;3.05;;;;;;;25.39;52.54;99858.66;10393378;28;20232;-67
2023/08/16 11:36:40;;;;;;;5.47;3.50;;;;;;;26.13;52.38;99850.50;10398150;28;20246;-67
2023/08/16 11:41:42;;;;;;;4.75;3.10;;;;;;;26.07;51.69;99837.13;10393243;28;20236;-67
2023/08/16 11:46:48;;;;;;;5.70;3.28;;;;;;;26.49;51.02;99841.13;10398248;28;20242;-67
2023/08/16 11:51:51;;;;;;;3.58;3.28;;;;;;;26.93;50.14;99832.66;10390250;28;20235;-67
2023/08/16 11:56:53;;;;;;;5.43;3.45;;;;;;;26.41;50.02;99842.56;10393207;28;20382;-66
2023/08/16 12:01:55;;;;;;;3.88;3.47;;;;;;;26.15;50.45;99851.00;10406084;28;20240;-67
2023/08/16 12:06:57;;;;;;;4.45;3.58;;;;;;;25.99;50.57;99835.78;10420650;28;22299;-67
2023/08/16 12:12:01;;;;;;;5.53;3.42;;;;;;;26.21;51.65;99832.56;10421102;28;20223;-67
2023/08/16 12:17:02;;;;;;;4.03;3.17;;;;;;;27.04;50.65;99824.28;10396961;28;20228;-67
2023/08/16 12:22:04;;;;;;;4.47;3.30;;;;;;;26.81;49.66;99834.22;10394869;28;20319;-67
2023/08/16 12:27:07;;;;;;;3.67;3.25;;;;;;;27.46;47.65;99822.63;10391612;28;20642;-67
2023/08/16 12:32:09;;;;;;;5.55;3.00;;;;;;;28.26;46.81;99787.81;10392518;28;20609;-67
2023/08/16 12:37:10;;;;;;;4.38;3.42;;;;;;;27.89;47.67;99799.75;10392080;28;20235;-67
2023/08/16 12:42:12;;;;;;;3.83;3.25;;;;;;;28.64;47.05;99775.78;10391466;28;20225;-67
2023/08/16 12:47:14;;;;;;;6.07;3.42;;;;;;;27.33;47.92;99787.66;10390907;28;20324;-67
2023/08/16 12:52:16;;;;;;;4.40;3.40;;;;;;;28.74;46.82;99768.16;10391956;28;20278;-67
2023/08/16 12:57:18;;;;;;;3.85;3.47;;;;;;;28.74;47.55;99775.59;10389379;28;20991;-67
2023/08/16 13:02:26;;;;;;;5.57;3.70;;;;;;;27.64;47.55;99799.81;10396970;28;20335;-67
2023/08/16 13:07:38;;;;;;;4.13;3.30;;;;;;;27.74;47.40;99800.81;10390455;28;20254;-67
2023/08/16 13:12:42;;;;;;;5.72;3.40;;;;;;;28.06;47.25;99758.72;10389229;28;20274;-67
2023/08/16 13:17:56;;;;;;;6.05;3.20;;;;;;;29.14;46.25;99751.88;10391222;28;20287;-67
2023/08/16 13:23:18;;;;;;;4.22;3.10;;;;;;;27.86;47.10;99777.22;10388343;28;20377;-67
2023/08/16 13:28:34;;;;;;;7.13;3.63;;;;;;;29.58;45.98;99737.63;10390478;28;20239;-67
2023/08/16 13:33:39;;;;;;;6.43;3.65;;;;;;;29.51;44.60;99752.66;10389227;28;20233;-67
2023/08/16 13:38:44;;;;;;;6.82;3.20;;;;;;;27.98;46.46;99762.19;10392316;28;20307;-68
2023/08/16 13:43:50;;;;;;;7.18;3.78;;;;;;;29.24;46.23;99734.28;10386106;28;20244;-68
2023/08/16 13:49:12;;;;;;;6.72;3.47;;;;;;;28.20;46.83;99742.25;10390846;28;20232;-67
2023/08/16 13:54:14;;;;;;;5.03;3.38;;;;;;;28.48;45.47;99726.56;10386786;28;20695;-67
2023/08/16 13:59:16;;;;;;;3.58;3.22;;;;;;;28.38;46.08;99726.78;10387954;28;20232;-67
2023/08/16 14:04:18;;;;;;;4.07;3.40;;;;;;;28.09;46.16;99729.78;10387467;28;20237;-67
2023/08/16 14:09:20;;;;;;;5.13;2.95;;;;;;;28.64;45.73;99712.47;10386779;28;20241;-67
2023/08/16 14:14:21;;;;;;;4.90;3.28;;;;;;;28.28;45.55;99738.00;10389509;28;20323;-67
2023/08/16 14:19:25;;;;;;;6.25;3.15;;;;;;;29.48;44.51;99694.59;10386310;28;20225;-68
2023/08/16 14:24:28;;;;;;;5.30;2.85;;;;;;;29.35;43.78;99701.78;10386431;28;20228;-68
2023/08/16 14:29:30;;;;;;;3.22;2.90;;;;;;;29.57;43.69;99686.34;10388856;28;20242;-68
2023/08/16 14:34:32;;;;;;;3.20;2.78;;;;;;;29.11;43.07;99702.06;10388555;28;20224;-67
2023/08/16 14:39:33;;;;;;;3.20;2.85;;;;;;;28.49;44.06;99714.47;10388153;28;20232;-67
2023/08/16 14:44:35;;;;;;;4.35;3.30;;;;;;;28.60;44.20;99695.78;10388606;28;20319;-67
2023/08/16 14:49:37;;;;;;;8.13;3.47;;;;;;;28.22;43.93;99727.09;10389030;28;20797;-67
2023/08/16 14:54:40;;;;;;;3.20;2.83;;;;;;;30.61;42.34;99686.81;10388488;28;20233;-68
2023/08/16 14:59:41;;;;;;;3.58;2.70;;;;;;;27.96;46.20;99725.91;10378891;28;20304;-66
2023/08/16 15:04:43;;;;;;;5.55;2.78;;;;;;;28.73;46.28;99675.69;10389766;28;20865;-67
2023/08/16 15:09:45;;;;;;;3.88;2.90;;;;;;;28.14;46.10;99663.69;10392381;28;20205;-67
2023/08/16 15:14:46;;;;;;;3.42;2.88;;;;;;;28.09;46.55;99674.78;10388879;28;20716;-67
2023/08/16 15:19:48;;;;;;;4.75;2.65;;;;;;;27.38;47.56;99685.94;10384136;28;20235;-67
2023/08/16 15:24:51;;;;;;;3.88;2.92;;;;;;;27.85;46.86;99676.63;10383661;28;20245;-68
2023/08/16 15:29:53;;;;;;;6.82;3.13;;;;;;;27.41;47.68;99653.22;10382221;28;20635;-68
2023/08/16 15:34:54;;;;;;;6.43;2.78;;;;;;;26.99;48.41;99665.97;10386270;28;20225;-67
2023/08/16 15:39:56;;;;;;;4.20;2.90;;;;;;;28.03;46.64;99658.38;10385728;28;20209;-67
2023/08/16 15:44:58;;;;;;;3.83;2.60;;;;;;;28.71;46.18;99688.13;10383188;28;20237;-67
2023/08/16 15:50:00;;;;;;;4.20;2.33;;;;;;;27.59;44.99;99709.22;10391259;28;20245;-68
2023/08/16 15:55:02;;;;;;;3.40;2.35;;;;;;;26.27;45.54;99716.28;10395166;28;20244;-67
2023/08/16 16:00:04;;;;;;;4.25;2.70;;;;;;;28.00;43.58;99672.78;10394797;28;20744;-67
2023/08/16 16:05:06;;;;;;;4.55;2.42;;;;;;;27.90;43.09;99685.88;10392017;28;20294;-67
2023/08/16 16:10:08;;;;;;;4.57;2.35;;;;;;;28.56;43.01;99727.78;10393255;28;20789;-67
2023/08/16 16:15:10;;;;;;;4.18;2.60;;;;;;;29.12;41.56;99751.38;10393473;28;20236;-67
2023/08/16 16:20:12;;;;;;;2.80;2.33;;;;;;;28.63;41.45;99766.72;10392257;28;20283;-67
2023/08/16 16:25:14;;;;;;;2.63;2.13;;;;;;;29.81;41.09;99728.22;10395137;28;20254;-67
2023/08/16 16:30:16;;;;;;;4.43;2.30;;;;;;;28.53;42.65;99704.44;10392634;28;20282;-67
2023/08/16 16:35:18;;;;;;;2.28;2.08;;;;;;;28.67;42.11;99745.75;10394522;28;20294;-68
2023/08/16 16:40:19;;;;;;;4.72;2.70;;;;;;;29.70;41.49;99724.09;10392920;28;20294;-68
2023/08/16 16:45:21;;;;;;;4.32;2.42;;;;;;;27.62;44.80;99722.34;10391988;28;20271;-67
2023/08/16 16:50:23;;;;;;;2.60;2.40;;;;;;;26.38;46.96;99670.34;10393334;28;20295;-68
2023/08/16 16:55:25;;;;;;;5.38;3.15;;;;;;;26.78;44.80;99687.41;10389875;28;20243;-67
2023/08/16 17:00:26;;;;;;;2.72;2.20;;;;;;;28.26;43.27;99638.44;10391352;28;20228;-67
2023/08/16 17:05:29;;;;;;;3.03;2.50;;;;;;;28.63;40.97;99672.31;10389878;28;20232;-67
2023/08/16 17:10:30;;;;;;;3.22;2.47;;;;;;;29.37;41.13;99668.41;10390875;28;20233;-67
2023/08/16 17:15:36;;;;;;;5.63;2.50;;;;;;;30.10;38.93;99707.59;10391067;28;20271;-67
2023/08/16 17:20:38;;;;;;;4.57;2.38;;;;;;;28.55;41.13;99673.88;10391345;28;20763;-68
2023/08/16 17:25:44;;;;;;;5.40;2.42;;;;;;;25.95;46.53;99610.78;10386609;28;22576;-68
2023/08/16 17:30:49;;;;;;;5.75;2.25;;;;;;;27.74;43.82;99589.16;10388649;28;21068;-67
2023/08/16 17:35:51;;;;;;;3.63;2.47;;;;;;;28.83;42.72;99622.34;10389610;28;20228;-67
2023/08/16 17:40:53;;;;;;;3.45;2.72;;;;;;;28.72;43.55;99627.25;10386735;28;20731;-68
2023/08/16 17:45:54;;;;;;;4.90;2.42;;;;;;;28.01;44.51;99624.88;10385782;28;20232;-67
2023/08/16 17:50:56;;;;;;;5.82;2.88;;;;;;;29.06;43.12;99634.16;10388502;28;20593;-67
2023/08/16 17:55:58;;;;;;;4.30;2.80;;;;;;;25.24;49.66;99648.72;10388147;28;20318;-67
2023/08/16 18:01:03;;;;;;;4.15;2.97;;;;;;;26.81;47.21;99626.44;10387867;28;20378;-68
2023/08/16 18:06:05;;;;;;;3.35;2.50;;;;;;;27.09;47.03;99641.09;10387023;28;20315;-68
2023/08/16 18:11:07;;;;;;;5.50;2.92;;;;;;;26.90;47.03;99663.06;10385116;28;20347;-67
2023/08/16 18:16:09;;;;;;;4.55;2.55;;;;;;;26.94;46.47;99708.03;10383549;28;20746;-68
2023/08/16 18:21:11;;;;;;;7.07;3.00;;;;;;;26.94;46.88;99693.47;10382592;28;20274;-68
2023/08/16 18:26:12;;;;;;;3.75;2.63;;;;;;;26.29;47.77;99691.31;10383764;28;20732;-68
2023/08/16 18:31:14;;;;;;;5.50;2.63;;;;;;;27.15;46.95;99672.00;10386552;28;20241;-68
2023/08/16 18:36:17;;;;;;;4.35;2.70;;;;;;;26.46;47.03;99743.75;10386109;28;20251;-68
2023/08/16 18:41:18;;;;;;;6.65;3.13;;;;;;;27.02;46.10;99701.03;10388869;28;20637;-68
2023/08/16 18:46:20;;;;;;;3.03;2.40;;;;;;;27.72;44.00;99712.31;10386760;28;20315;-67
2023/08/16 18:51:22;;;;;;;3.22;2.45;;;;;;;26.26;44.88;99758.50;10389689;28;20279;-68
2023/08/16 18:56:24;;;;;;;3.63;2.45;;;;;;;26.65;45.08;99737.50;10388425;28;20767;-67
2023/08/16 19:01:25;;;;;;;3.75;2.50;;;;;;;26.96;44.24;99784.59;10388782;28;20361;-67
2023/08/16 19:06:27;;;;;;;3.17;2.28;;;;;;;26.76;44.77;99789.25;10386625;28;20267;-68
2023/08/16 19:11:29;;;;;;;3.10;2.40;;;;;;;27.26;45.08;99797.13;10388692;28;20228;-67
2023/08/16 19:16:32;;;;;;;5.07;2.55;;;;;;;28.31;44.39;99751.94;10388111;28;20717;-67
2023/08/16 19:21:35;;;;;;;6.20;2.90;;;;;;;26.20;47.21;99765.97;10385997;28;20237;-67
2023/08/16 19:26:37;;;;;;;3.85;2.45;;;;;;;25.86;48.59;99754.22;10390148;28;20615;-67
2023/08/16 19:31:38;;;;;;;2.63;2.42;;;;;;;25.01;48.50;99765.19;10393972;28;20237;-67
2023/08/16 19:36:41;;;;;;;3.10;1.90;;;;;;;24.41;49.82;99753.41;10396466;28;20286;-67
2023/08/16 19:41:42;;;;;;;2.63;2.35;;;;;;;24.45;49.08;99781.84;10394938;28;20240;-67
2023/08/16 19:46:44;;;;;;;2.38;1.98;;;;;;;23.99;49.57;99805.38;10391496;28;20236;-67
2023/08/16 19:51:46;;;;;;;2.22;1.85;;;;;;;25.02;49.11;99752.34;10396888;28;20723;-67
2023/08/16 19:56:47;;;;;;;3.03;1.83;;;;;;;24.94;48.78;99785.78;10389968;28;20232;-67
2023/08/16 20:01:49;;;;;;;4.43;2.60;;;;;;;24.64;49.44;99828.53;10394420;28;20247;-67
2023/08/16 20:06:51;;;;;;;2.30;2.10;;;;;;;23.14;52.88;99813.16;10393626;28;20327;-67
2023/08/16 20:11:56;;;;;;;2.33;1.73;;;;;;;22.20;53.87;99804.72;10397884;28;20291;-67
2023/08/16 20:16:58;;;;;;;4.85;2.10;;;;;;;22.88;53.51;99785.78;10393730;28;20246;-67
2023/08/16 20:21:59;;;;;;;3.17;2.38;;;;;;;23.00;53.14;99785.53;10392539;28;20252;-67
2023/08/16 20:27:01;;;;;;;2.15;2.05;;;;;;;22.76;53.63;99793.34;10391393;28;20302;-67
2023/08/16 20:32:03;;;;;;;4.70;2.13;;;;;;;23.51;52.05;99806.69;10393425;28;20232;-67
2023/08/16 20:37:05;;;;;;;2.20;2.00;;;;;;;23.22;52.47;99832.56;10392539;28;20240;-67
2023/08/16 20:42:07;;;;;;;2.83;2.50;;;;;;;22.86;53.92;99804.31;10392462;28;20225;-67
2023/08/16 20:47:08;;;;;;;2.40;2.17;;;;;;;22.13;55.71;99808.50;10390995;28;20228;-67
2023/08/16 20:52:10;;;;;;;5.00;2.50;;;;;;;22.45;54.50;99815.78;10394485;28;20238;-67
2023/08/16 20:57:12;;;;;;;3.17;2.20;;;;;;;23.01;53.39;99820.75;10392365;28;20294;-67
2023/08/16 21:02:14;;;;;;;3.72;2.30;;;;;;;22.38;54.72;99845.19;10394484;28;20716;-67
2023/08/16 21:07:16;;;;;;;2.00;1.80;;;;;;;23.58;52.09;99829.94;10390577;28;20373;-67
2023/08/16 21:12:19;;;;;;;3.33;2.47;;;;;;;23.61;52.41;99851.25;10395735;28;20232;-67
2023/08/16 21:17:21;;;;;;;2.38;2.17;;;;;;;23.31;52.83;99865.63;10393527;28;20315;-67
2023/08/16 21:22:23;;;;;;;3.42;2.55;;;;;;;25.71;48.44;99848.31;10391703;28;20237;-67
2023/08/16 21:27:24;;;;;;;2.85;2.20;;;;;;;25.86;48.23;99872.09;10389888;28;20232;-67
2023/08/16 21:32:27;;;;;;;2.72;2.38;;;;;;;24.34;50.55;99917.75;10391590;28;20225;-67
2023/08/16 21:37:28;;;;;;;5.18;2.70;;;;;;;24.40;51.22;99872.09;10390589;28;20679;-67
2023/08/16 21:42:30;;;;;;;4.20;2.85;;;;;;;25.08;49.38;99872.47;10390390;28;20302;-68
2023/08/16 21:47:32;;;;;;;3.22;2.50;;;;;;;24.10;52.54;99832.72;10389379;28;20286;-67
2023/08/16 21:52:34;;;;;;;2.65;2.45;;;;;;;25.43;49.32;99856.19;10391267;28;20326;-67
2023/08/16 21:57:35;;;;;;;2.97;2.42;;;;;;;25.06;50.35;99844.56;10386633;28;20268;-67
2023/08/16 22:02:37;;;;;;;4.25;3.00;;;;;;;25.28;50.29;99832.44;10388340;28;20276;-67
2023/08/16 22:07:41;;;;;;;3.53;2.80;;;;;;;23.46;53.14;99894.88;10387565;28;20263;-67
2023/08/16 22:12:42;;;;;;;6.72;2.72;;;;;;;25.28;49.87;99827.75;10389573;28;20224;-67
2023/08/16 22:17:44;;;;;;;4.68;2.47;;;;;;;24.85;50.39;99852.03;10386935;28;20254;-68
2023/08/16 22:22:46;;;;;;;4.55;2.55;;;;;;;24.67;51.19;99850.69;10389715;28;20259;-67
2023/08/16 22:27:48;;;;;;;4.15;2.47;;;;;;;24.79;50.89;99852.34;10387853;28;20232;-67
2023/08/16 22:32:50;;;;;;;4.32;3.03;;;;;;;24.51;51.45;99852.66;10389005;28;20247;-67
2023/08/16 22:37:52;;;;;;;3.45;2.60;;;;;;;24.47;51.56;99850.75;10390420;28;20232;-67
2023/08/16 22:42:53;;;;;;;3.30;2.60;;;;;;;23.25;53.68;99863.97;10388637;28;20283;-67
2023/08/16 22:47:55;;;;;;;3.30;2.60;;;;;;;24.14;52.00;99837.38;10386510;28;20236;-67
2023/08/16 22:52:57;;;;;;;2.88;2.28;;;;;;;23.02;53.54;99867.94;10390178;28;20225;-67
2023/08/16 22:57:59;;;;;;;2.90;2.10;;;;;;;23.20;52.14;99894.00;10388311;28;20240;-67
2023/08/16 23:03:01;;;;;;;2.78;2.50;;;;;;;23.68;52.23;99839.25;10388039;28;20251;-67
2023/08/16 23:08:03;;;;;;;3.10;2.20;;;;;;;23.70;52.46;99842.53;10387438;28;20727;-70
2023/08/16 23:13:05;;;;;;;3.33;2.25;;;;;;;23.18;52.78;99886.06;10383244;28;20699;-67
2023/08/16 23:18:07;;;;;;;3.05;2.30;;;;;;;23.23;52.13;99880.63;10385975;28;20588;-69
2023/08/16 23:23:09;;;;;;;2.05;1.80;;;;;;;23.16;51.78;99893.72;10387647;28;20224;-67
2023/08/16 23:28:11;;;;;;;2.25;1.67;;;;;;;22.75;51.84;99914.44;10387761;28;20243;-67